Time;durP1;ratioP1;P1;durP2;ratioP2;P2;SDS_P1;SDS_P2;PMS_P1;PMS_P2;Temp;Humidity;BMP_temperature;BMP_pressure;BME280_temperature;BME280_humidity;BME280_pressure;Samples;Min_cycle;Max_cycle;Signal;HPM_P1;HPM_P2
2021/07/27 00:00:38;;;;;;;12.57;11.07;;;;;;;22.76;61.03;101136.75;4973218;28;20027;-72
2021/07/27 00:03:04;;;;;;;11.52;10.32;;;;;;;22.77;61.25;101141.13;4973209;28;20030;-71
2021/07/27 00:05:31;;;;;;;11.70;10.15;;;;;;;22.77;60.89;101145.53;4973334;28;19937;-72
2021/07/27 00:07:57;;;;;;;10.77;9.60;;;;;;;22.76;60.84;101149.06;4941140;28;20481;-72
2021/07/27 00:10:27;;;;;;;11.43;10.07;;;;;;;22.76;61.05;101149.94;4956964;28;20031;-72
2021/07/27 00:12:53;;;;;;;10.82;9.73;;;;;;;22.77;61.08;101153.44;4957850;28;20046;-72
2021/07/27 00:15:18;;;;;;;10.40;8.90;;;;;;;22.77;60.77;101159.59;4974277;28;20038;-72
2021/07/27 00:17:44;;;;;;;10.75;9.65;;;;;;;22.72;60.64;101150.00;4973619;28;20044;-72
2021/07/27 00:20:10;;;;;;;11.65;10.45;;;;;;;22.80;60.82;101156.03;4973148;28;20031;-72
2021/07/27 00:22:42;;;;;;;10.50;9.40;;;;;;;22.77;60.80;101150.81;4972832;28;20022;-72
2021/07/27 00:25:14;;;;;;;10.87;9.77;;;;;;;22.79;60.88;101162.22;4972866;28;20066;-71
2021/07/27 00:27:40;;;;;;;10.20;9.20;;;;;;;22.80;60.85;101166.59;4974214;28;20485;-72
2021/07/27 00:30:06;;;;;;;11.15;10.05;;;;;;;22.79;60.75;101160.44;4974509;28;20086;-72
2021/07/27 00:32:41;;;;;;;;;;;;;;;22.80;60.81;101163.94;4974361;28;20394;-72
2021/07/27 00:35:09;;;;;;;12.20;10.70;;;;;;;22.80;60.79;101161.31;4974830;28;19969;-72
2021/07/27 00:37:35;;;;;;;10.85;9.77;;;;;;;22.80;60.83;101164.81;4976609;28;20035;-72
2021/07/27 00:40:02;;;;;;;10.85;9.77;;;;;;;22.80;60.75;101166.59;4977635;28;20030;-72
2021/07/27 00:42:30;;;;;;;10.55;9.45;;;;;;;22.79;60.67;101164.84;4977660;28;20516;-72
2021/07/27 00:44:56;;;;;;;10.88;9.75;;;;;;;22.80;60.59;101171.88;4976368;28;19910;-72
2021/07/27 00:47:21;;;;;;;12.00;9.90;;;;;;;22.78;60.72;101171.88;4977562;28;19914;-72
2021/07/27 00:49:47;;;;;;;9.77;8.77;;;;;;;22.79;60.62;101163.09;4977567;28;20393;-72
2021/07/27 00:52:13;;;;;;;10.63;9.63;;;;;;;22.77;60.73;101164.88;4977296;28;20176;-72
2021/07/27 00:54:38;;;;;;;;;;;;;;;22.80;60.61;101177.13;4960441;28;20061;-72
2021/07/27 00:57:04;;;;;;;10.45;9.40;;;;;;;22.78;60.80;101176.28;4944058;28;19918;-72
2021/07/27 00:59:30;;;;;;;10.95;9.93;;;;;;;22.78;60.84;101168.38;4959891;28;20033;-72
2021/07/27 01:01:55;;;;;;;11.00;9.82;;;;;;;22.80;60.59;101161.31;4959895;28;20026;-71
2021/07/27 01:04:21;;;;;;;10.18;9.02;;;;;;;22.78;60.57;101160.47;4960098;28;20042;-72
2021/07/27 01:06:47;;;;;;;10.57;9.50;;;;;;;22.78;60.65;101160.47;4943762;28;20481;-71
2021/07/27 01:09:13;;;;;;;10.68;9.60;;;;;;;22.77;60.98;101151.69;4977254;28;20106;-72
2021/07/27 01:11:43;;;;;;;9.88;8.98;;;;;;;22.77;60.69;101156.97;4977103;28;20118;-72
2021/07/27 01:14:09;;;;;;;11.00;9.90;;;;;;;22.79;60.71;101152.53;4943864;28;20134;-72
2021/07/27 01:16:36;;;;;;;12.23;9.18;;;;;;;22.78;60.64;101139.38;4977272;28;20138;-72
2021/07/27 01:43:45;;;;;;;10.10;9.10;;;;;;;22.79;60.45;101112.97;4898278;29;20041;-72
2021/07/27 01:46:12;;;;;;;9.75;8.10;;;;;;;22.79;60.42;101107.72;4898026;29;20428;-72
2021/07/27 01:48:38;;;;;;;10.73;9.65;;;;;;;22.77;60.85;101103.34;4935046;28;20130;-72
2021/07/27 01:51:03;;;;;;;10.23;9.23;;;;;;;22.78;60.52;101111.25;4978405;28;20117;-72
2021/07/27 01:53:36;;;;;;;10.60;8.35;;;;;;;22.78;60.66;101110.38;4976437;28;20381;-72
2021/07/27 01:56:01;;;;;;;10.73;9.63;;;;;;;22.77;60.63;101103.34;4943007;28;20031;-72
2021/07/27 01:58:27;;;;;;;10.20;9.23;;;;;;;22.76;60.54;101102.47;4942977;28;20053;-72
2021/07/27 02:00:53;;;;;;;10.68;9.52;;;;;;;22.76;60.66;101102.47;4976195;28;20500;-72
2021/07/27 02:03:18;;;;;;;9.73;8.77;;;;;;;22.73;60.64;101101.63;4976533;28;20374;-72
2021/07/27 02:05:44;;;;;;;9.77;8.77;;;;;;;22.79;60.56;101112.09;4976253;28;20031;-71
2021/07/27 02:08:10;;;;;;;13.13;9.15;;;;;;;22.78;60.47;101108.59;4960074;28;20034;-72
2021/07/27 02:10:36;;;;;;;11.18;10.05;;;;;;;22.74;60.38;101098.97;4966101;28;20031;-72
2021/07/27 02:13:15;;;;;;;9.60;8.52;;;;;;;22.77;60.33;101104.22;4982552;28;20174;-72
2021/07/27 02:15:44;;;;;;;11.07;9.85;;;;;;;22.77;60.46;101108.63;4975972;28;20029;-72
2021/07/27 02:18:10;;;;;;;10.30;9.30;;;;;;;22.73;60.51;101094.59;4976012;28;20445;-71
2021/07/27 02:20:36;;;;;;;9.93;8.73;;;;;;;22.76;60.61;101106.88;4958484;28;20031;-72
2021/07/27 02:23:03;;;;;;;11.00;9.90;;;;;;;22.79;60.45;101112.09;4975946;28;20059;-72
2021/07/27 02:25:29;;;;;;;12.93;11.20;;;;;;;22.77;60.48;101108.63;4975816;28;20096;-72
2021/07/27 02:27:55;;;;;;;10.63;8.68;;;;;;;22.78;60.47;101105.97;4975709;28;20470;-72
2021/07/27 02:30:20;;;;;;;10.40;9.25;;;;;;;22.78;60.57;101105.09;4975700;28;20470;-72
2021/07/27 02:32:45;;;;;;;10.40;9.30;;;;;;;22.73;60.48;101102.50;4958305;28;20023;-72
2021/07/27 02:35:11;;;;;;;10.07;9.07;;;;;;;22.75;60.28;101103.34;4926438;28;20045;-72
2021/07/27 02:37:37;;;;;;;9.30;8.30;;;;;;;22.78;60.33;101103.31;4975542;28;20493;-71
2021/07/27 02:40:07;;;;;;;11.27;10.10;;;;;;;22.78;60.27;101111.25;4975400;28;20026;-72
2021/07/27 02:42:32;;;;;;;10.63;9.55;;;;;;;22.78;60.44;101105.09;4942778;28;20142;-71
2021/07/27 02:44:58;;;;;;;11.75;10.40;;;;;;;22.76;60.42;101098.97;4975357;28;20485;-72
2021/07/27 02:47:24;;;;;;;9.63;8.73;;;;;;;22.76;60.36;101107.75;4958251;28;20030;-72
2021/07/27 02:49:50;;;;;;;9.90;8.90;;;;;;;22.72;60.45;101100.75;4958373;28;20495;-71
2021/07/27 02:52:16;;;;;;;10.02;9.02;;;;;;;22.78;60.28;101102.47;4955357;28;20050;-72
2021/07/27 02:54:41;;;;;;;10.68;9.55;;;;;;;22.75;60.35;101095.44;4961595;28;20035;-72
2021/07/27 02:57:06;;;;;;;10.43;9.32;;;;;;;22.79;60.32;101096.28;4976928;28;20034;-72
2021/07/27 02:59:32;;;;;;;9.55;8.57;;;;;;;22.77;60.34;101098.09;4994808;28;20037;-72
2021/07/27 03:01:57;;;;;;;11.45;10.25;;;;;;;22.73;60.43;101091.94;4995180;28;20531;-72
2021/07/27 03:04:23;;;;;;;10.95;9.88;;;;;;;22.75;60.27;101098.06;4945139;28;20030;-72
2021/07/27 03:06:49;;;;;;;11.05;9.95;;;;;;;22.76;60.26;101099.84;4994592;28;20022;-72
2021/07/27 03:12:09;;;;;;;11.27;9.70;;;;;;;22.78;60.47;101102.47;4941412;28;20118;-72
2021/07/27 03:14:34;;;;;;;11.52;10.40;;;;;;;22.79;60.39;101098.94;4994420;28;20114;-72
2021/07/27 03:16:59;;;;;;;10.82;9.77;;;;;;;22.75;60.36;101095.44;4994282;28;20453;-72
2021/07/27 03:19:25;;;;;;;10.07;9.07;;;;;;;22.78;60.22;101094.56;4960857;28;20143;-72
2021/07/27 03:21:50;;;;;;;11.63;10.18;;;;;;;22.74;60.35;101090.19;4945390;28;20034;-72
2021/07/27 03:24:16;;;;;;;10.77;9.68;;;;;;;22.75;60.40;101092.81;4960797;28;20491;-72
2021/07/27 03:26:41;;;;;;;12.25;9.93;;;;;;;22.73;60.24;101089.31;4976911;28;20029;-72
2021/07/27 03:29:07;;;;;;;11.40;10.30;;;;;;;22.77;60.22;101093.69;4960625;28;20034;-72
2021/07/27 03:31:32;;;;;;;11.48;10.27;;;;;;;22.72;60.12;101077.03;4994222;28;20113;-72
2021/07/27 03:33:58;;;;;;;12.48;11.27;;;;;;;22.77;60.26;101090.16;4976541;28;20062;-72
2021/07/27 03:36:23;;;;;;;11.20;10.10;;;;;;;22.74;60.20;101080.50;4976586;28;20031;-72
2021/07/27 03:38:50;;;;;;;11.63;10.48;;;;;;;22.77;60.34;101087.53;4960857;28;20038;-72
2021/07/27 03:41:16;;;;;;;12.10;10.23;;;;;;;22.76;60.29;101081.38;4976794;28;20039;-72
2021/07/27 03:43:41;;;;;;;11.57;10.40;;;;;;;22.72;60.32;101073.56;4994188;28;20042;-72
2021/07/27 03:46:07;;;;;;;12.23;10.93;;;;;;;22.76;60.15;101080.53;4960417;28;20366;-72
2021/07/27 03:48:32;;;;;;;10.45;9.38;;;;;;;22.74;60.11;101071.72;4976446;28;20049;-72
2021/07/27 03:50:58;;;;;;;14.10;12.02;;;;;;;22.73;60.26;101064.72;4990850;28;20105;-72
2021/07/27 03:53:24;;;;;;;13.32;10.32;;;;;;;22.72;60.11;101065.66;4974453;28;20389;-72
2021/07/27 03:55:50;;;;;;;12.40;11.15;;;;;;;22.74;60.10;101069.97;4974492;28;20495;-73
2021/07/27 03:58:15;;;;;;;12.73;11.15;;;;;;;22.73;60.08;101073.50;4957383;28;20035;-72
2021/07/27 04:00:41;;;;;;;13.13;11.35;;;;;;;22.73;60.13;101067.34;4957202;28;20033;-72
2021/07/27 04:03:07;;;;;;;12.52;10.75;;;;;;;22.71;60.01;101061.28;4957114;28;20041;-72
2021/07/27 04:05:33;;;;;;;15.05;13.15;;;;;;;22.70;59.99;101056.91;4957177;28;20039;-72
2021/07/27 04:07:59;;;;;;;15.43;11.90;;;;;;;22.73;59.73;101067.34;4941205;28;20452;-71
2021/07/27 04:10:24;;;;;;;15.82;12.43;;;;;;;22.73;59.92;101075.25;4959728;28;20138;-72
2021/07/27 04:12:50;;;;;;;14.80;13.18;;;;;;;22.73;59.81;101077.91;4978320;28;20038;-75
2021/07/27 04:15:16;;;;;;;15.52;13.95;;;;;;;22.72;59.92;101084.94;4978870;28;20089;-72
2021/07/27 04:17:41;;;;;;;16.17;13.48;;;;;;;22.73;59.93;101083.19;4961592;28;20031;-72
2021/07/27 04:20:07;;;;;;;16.70;13.38;;;;;;;22.71;60.13;101082.38;4978492;28;20023;-72
2021/07/27 04:22:32;;;;;;;14.43;12.93;;;;;;;22.72;60.00;101084.94;4944896;28;20049;-72
2021/07/27 04:24:58;;;;;;;17.10;13.73;;;;;;;22.71;59.91;101085.88;4944705;28;20034;-72
2021/07/27 04:27:24;;;;;;;13.32;11.98;;;;;;;22.72;59.90;101084.09;4944781;28;20034;-72
2021/07/27 04:29:50;;;;;;;16.67;13.10;;;;;;;22.70;59.96;101080.63;4945002;28;20054;-72
2021/07/27 04:32:15;;;;;;;;;;;;;;;22.74;59.95;101084.91;4945036;28;20070;-72
2021/07/27 04:34:40;;;;;;;;;;;;;;;22.74;59.80;101082.28;4978233;28;19924;-72
2021/07/27 04:37:06;;;;;;;15.70;13.75;;;;;;;22.72;60.05;101087.56;4978534;28;19968;-74
2021/07/27 04:39:31;;;;;;;21.35;17.83;;;;;;;22.71;59.49;101074.44;4944672;28;20516;-72
2021/07/27 04:41:57;;;;;;;25.98;23.15;;;;;;;22.69;59.15;101074.47;4960254;28;20037;-71
2021/07/27 04:44:22;;;;;;;29.15;25.50;;;;;;;22.57;59.00;101069.44;4960391;28;20114;-72
2021/07/27 04:46:47;;;;;;;30.23;25.92;;;;;;;22.61;58.72;101070.22;4960496;28;20034;-72
2021/07/27 04:49:16;;;;;;;;;;;;;;;22.57;58.90;101073.84;4960545;28;20624;-72
2021/07/27 04:51:42;;;;;;;;;;;;;;;22.55;58.59;101073.00;4966042;28;20012;-72
2021/07/27 04:54:13;;;;;;;34.80;27.00;;;;;;;22.54;58.81;101077.38;4977424;28;20417;-72
2021/07/27 04:56:38;;;;;;;32.67;23.75;;;;;;;22.54;58.67;101076.53;4976146;28;20122;-72
2021/07/27 04:59:03;;;;;;;36.33;24.65;;;;;;;22.52;58.63;101076.53;4976079;28;20058;-72
2021/07/27 05:01:29;;;;;;;;;;;;;;;22.52;58.76;101078.31;4976474;28;20030;-72
2021/07/27 05:03:57;;;;;;;;;;;;;;;22.50;58.60;101078.34;4977778;28;20037;-72
2021/07/27 05:06:22;;;;;;;;;;;;;;;22.48;59.00;101077.47;4976503;28;19950;-71
2021/07/27 05:08:48;;;;;;;26.95;23.88;;;;;;;22.46;58.96;101074.00;4976015;28;20000;-72
2021/07/27 05:11:13;;;;;;;;;;;;;;;22.49;58.73;101081.88;4976161;28;20058;-71
2021/07/27 05:13:39;;;;;;;33.00;25.43;;;;;;;22.45;58.70;101072.28;4977055;28;20468;-72
2021/07/27 05:16:10;;;;;;;38.00;29.92;;;;;;;22.24;59.09;101077.91;4977226;28;20270;-71
2021/07/27 05:18:35;;;;;;;36.28;27.33;;;;;;;22.07;59.23;101073.78;4977374;28;20031;-72
2021/07/27 05:21:01;;;;;;;38.80;30.73;;;;;;;21.99;59.50;101090.59;4975917;28;20380;-71
2021/07/27 05:23:30;;;;;;;41.50;29.50;;;;;;;21.91;59.65;101092.47;4977343;28;20066;-72
2021/07/27 05:25:56;;;;;;;40.78;31.55;;;;;;;21.81;59.58;101090.88;4977212;28;20023;-72
2021/07/27 05:28:23;;;;;;;41.78;33.63;;;;;;;21.75;59.72;101087.44;4976164;28;20031;-72
2021/07/27 05:30:48;;;;;;;41.35;31.35;;;;;;;21.80;59.56;101083.88;4975735;28;20071;-72
2021/07/27 05:33:14;;;;;;;41.60;30.80;;;;;;;21.75;59.35;101076.91;4975520;28;20664;-72
2021/07/27 05:35:39;;;;;;;39.30;30.35;;;;;;;21.75;59.17;101074.25;4975414;28;20505;-72
2021/07/27 05:38:04;;;;;;;37.90;29.63;;;;;;;21.72;59.45;101081.31;4976922;28;20434;-71
2021/07/27 05:40:31;;;;;;;37.72;30.45;;;;;;;21.67;59.41;101084.03;4975278;28;20035;-72
2021/07/27 05:43:00;;;;;;;34.10;28.40;;;;;;;21.63;59.27;101074.44;4976900;28;20497;-72
2021/07/27 05:45:26;;;;;;;36.15;27.92;;;;;;;21.65;59.30;101085.81;4975536;28;20393;-72
2021/07/27 05:47:52;;;;;;;30.23;25.70;;;;;;;21.63;59.38;101077.06;4976584;28;20033;-72
2021/07/27 05:50:19;;;;;;;34.33;27.17;;;;;;;21.72;59.24;101071.66;4959365;28;20030;-79
2021/07/27 05:52:44;;;;;;;30.83;27.45;;;;;;;21.77;59.20;101084.78;4959172;28;20061;-74
2021/07/27 05:55:10;;;;;;;30.08;26.90;;;;;;;21.82;58.92;101074.16;4977096;28;20478;-73
2021/07/27 05:57:35;;;;;;;31.63;24.30;;;;;;;21.78;58.88;101072.47;4960312;28;20042;-72
2021/07/27 06:00:01;;;;;;;26.50;23.58;;;;;;;21.88;58.64;101084.59;4960651;28;20085;-72
2021/07/27 06:02:26;;;;;;;29.67;25.98;;;;;;;21.86;58.47;101079.38;4944644;28;20121;-72
2021/07/27 06:04:52;;;;;;;31.80;25.58;;;;;;;21.84;58.46;101083.78;4960646;28;20118;-72
2021/07/27 06:07:17;;;;;;;26.50;23.50;;;;;;;21.81;58.59;101077.72;4960231;28;20042;-72
2021/07/27 06:09:42;;;;;;;28.23;24.75;;;;;;;21.84;58.48;101078.50;4976173;28;20015;-71
2021/07/27 06:12:09;;;;;;;31.67;25.43;;;;;;;21.83;58.44;101071.50;4976176;28;20039;-73
2021/07/27 06:14:35;;;;;;;31.80;23.90;;;;;;;21.86;58.35;101078.50;4976001;28;20089;-72
2021/07/27 06:17:00;;;;;;;28.70;24.53;;;;;;;21.83;58.50;101065.38;4976466;28;20069;-72
2021/07/27 06:19:26;;;;;;;28.42;24.17;;;;;;;21.86;58.56;101075.84;4975033;28;20110;-72
2021/07/27 06:21:52;;;;;;;29.48;25.38;;;;;;;21.89;58.30;101078.44;4974885;28;20034;-72
2021/07/27 06:24:17;;;;;;;33.90;27.30;;;;;;;21.89;58.32;101084.59;4976213;28;20396;-72
2021/07/27 06:26:43;;;;;;;27.80;24.50;;;;;;;21.87;58.35;101086.38;4975000;28;20035;-72
2021/07/27 06:29:09;;;;;;;29.75;24.55;;;;;;;21.85;58.21;101087.28;4976088;28;20045;-72
2021/07/27 06:31:35;;;;;;;29.77;24.80;;;;;;;21.81;58.13;101089.06;4974365;28;20039;-72
2021/07/27 06:34:00;;;;;;;27.17;24.40;;;;;;;21.84;58.32;101093.44;4975646;28;20478;-73
2021/07/27 06:36:28;;;;;;;26.43;23.73;;;;;;;21.83;58.06;101099.59;4974951;28;20093;-73
2021/07/27 06:38:54;;;;;;;28.60;25.65;;;;;;;21.87;58.17;101109.19;4975821;28;20031;-72
2021/07/27 06:41:20;;;;;;;27.40;24.60;;;;;;;21.85;58.38;101105.72;4975734;28;20047;-73
2021/07/27 06:43:46;;;;;;;30.67;25.33;;;;;;;21.88;58.22;101108.31;4974513;28;20045;-72
2021/07/27 06:46:11;;;;;;;;;;;;;;;21.92;58.02;101102.97;4974566;28;20397;-73
2021/07/27 06:48:37;;;;;;;31.65;25.58;;;;;;;21.89;58.01;101102.16;4975598;28;20106;-72
2021/07/27 06:51:13;;;;;;;26.73;23.15;;;;;;;21.80;58.31;101104.94;4975392;28;20116;-73
2021/07/27 06:53:42;;;;;;;25.33;22.75;;;;;;;21.87;58.46;101106.56;4958139;28;20171;-72
2021/07/27 06:56:09;;;;;;;28.08;22.20;;;;;;;21.83;58.05;101099.59;4942345;28;20063;-72
2021/07/27 06:58:38;;;;;;;27.92;22.88;;;;;;;21.82;58.05;101098.72;4958053;28;20486;-72
2021/07/27 07:01:05;;;;;;;25.35;22.90;;;;;;;21.82;58.43;101109.25;4957895;28;20030;-72
2021/07/27 07:03:31;;;;;;;25.73;22.15;;;;;;;21.79;58.28;101105.81;4975263;28;20034;-72
2021/07/27 07:05:57;;;;;;;24.60;22.00;;;;;;;21.87;58.61;101112.69;4958219;28;20089;-72
2021/07/27 07:08:23;;;;;;;24.27;21.02;;;;;;;21.84;58.51;101112.72;4975294;28;20023;-72
2021/07/27 07:10:56;;;;;;;28.75;21.67;;;;;;;21.84;58.35;101114.50;4942175;28;20122;-71
2021/07/27 07:13:21;;;;;;;21.85;19.08;;;;;;;21.81;58.39;101112.78;4957931;28;20034;-72
2021/07/27 07:15:46;;;;;;;20.30;18.10;;;;;;;21.91;58.50;101110.91;4958073;28;20038;-72
2021/07/27 07:18:12;;;;;;;22.05;17.45;;;;;;;22.00;58.03;101114.28;4958129;28;20039;-72
2021/07/27 07:20:37;;;;;;;19.55;17.55;;;;;;;22.16;57.70;101117.56;4941824;28;20027;-71
2021/07/27 07:23:02;;;;;;;17.98;16.08;;;;;;;22.25;57.41;101125.31;4957470;28;20066;-72
2021/07/27 07:25:28;;;;;;;21.75;19.40;;;;;;;22.30;57.67;101126.13;4958110;28;20054;-72
2021/07/27 07:27:53;;;;;;;25.60;21.30;;;;;;;22.33;57.58;101119.94;4957842;28;20113;-71
2021/07/27 07:30:18;;;;;;;18.52;16.55;;;;;;;22.34;57.38;101122.50;4957590;28;20086;-71
2021/07/27 07:32:44;;;;;;;18.13;16.27;;;;;;;22.37;57.42;101132.13;4957560;28;20105;-71
2021/07/27 07:35:09;;;;;;;16.90;15.30;;;;;;;22.38;57.35;101125.97;4957640;28;20034;-72
2021/07/27 07:37:35;;;;;;;20.08;15.77;;;;;;;22.40;57.40;101116.28;4957616;28;20030;-72
2021/07/27 07:40:00;;;;;;;15.60;13.25;;;;;;;22.42;57.46;101122.41;4941641;28;20374;-71
2021/07/27 07:42:25;;;;;;;17.13;15.35;;;;;;;22.43;57.66;101119.75;4974714;28;20109;-72
2021/07/27 07:44:51;;;;;;;15.85;14.27;;;;;;;22.43;57.53;101119.75;4974478;28;20058;-72
2021/07/27 07:47:16;;;;;;;15.15;13.70;;;;;;;22.43;57.38;101121.50;4941484;28;20441;-72
2021/07/27 07:49:41;;;;;;;16.05;14.43;;;;;;;22.43;57.70;101122.38;4941292;28;20034;-71
2021/07/27 07:52:07;;;;;;;17.42;14.65;;;;;;;22.45;57.63;101128.50;4966157;28;20057;-72
2021/07/27 07:54:34;;;;;;;15.77;14.15;;;;;;;22.46;57.65;101129.34;4974591;28;20066;-71
2021/07/27 07:57:00;;;;;;;20.88;16.17;;;;;;;22.46;57.34;101126.72;4973439;28;20035;-72
2021/07/27 07:59:25;;;;;;;17.02;14.93;;;;;;;22.45;57.50;101125.88;4974700;28;20113;-72
2021/07/27 08:01:55;;;;;;;16.33;14.70;;;;;;;22.48;57.73;101126.69;4973818;28;20062;-72
2021/07/27 08:04:21;;;;;;;15.82;14.23;;;;;;;22.49;57.63;101128.44;4973287;28;20054;-72
2021/07/27 08:06:46;;;;;;;15.43;13.85;;;;;;;22.45;57.75;101123.22;4957307;28;20035;-72
2021/07/27 08:09:12;;;;;;;15.35;13.73;;;;;;;22.48;57.80;101132.81;4941153;28;20026;-71
2021/07/27 08:11:40;;;;;;;16.00;14.25;;;;;;;22.46;57.72;101119.66;4974388;28;20031;-71
2021/07/27 08:14:06;;;;;;;18.38;16.45;;;;;;;22.50;57.96;101120.50;4973220;28;20051;-72
2021/07/27 08:16:31;;;;;;;17.60;15.90;;;;;;;22.50;57.71;101119.63;4974416;28;20497;-71
2021/07/27 08:18:57;;;;;;;18.48;14.85;;;;;;;22.48;57.82;101110.88;4974473;28;20055;-72
2021/07/27 08:21:24;;;;;;;16.00;14.35;;;;;;;22.52;57.74;101112.56;4957307;28;20038;-72
2021/07/27 08:23:49;;;;;;;17.43;15.63;;;;;;;22.52;57.55;101107.28;4974563;28;20548;-72
2021/07/27 08:26:15;;;;;;;19.25;17.23;;;;;;;22.49;57.79;101113.47;4973442;28;20026;-72
2021/07/27 08:28:42;;;;;;;19.88;16.73;;;;;;;22.53;57.86;101109.03;4957054;28;20102;-72
2021/07/27 08:31:09;;;;;;;21.67;17.25;;;;;;;22.54;57.82;101111.66;4974682;28;20058;-71
2021/07/27 08:33:34;;;;;;;17.85;15.52;;;;;;;22.53;57.85;101099.38;4973263;28;20384;-71
2021/07/27 08:36:00;;;;;;;17.35;15.57;;;;;;;22.55;57.78;101105.50;4973123;28;20031;-72
2021/07/27 08:38:25;;;;;;;19.83;15.85;;;;;;;22.52;57.74;101102.03;4973095;28;20027;-72
2021/07/27 08:40:50;;;;;;;18.30;15.55;;;;;;;22.52;57.95;101100.25;4973040;28;20034;-72
2021/07/27 08:43:17;;;;;;;21.02;16.45;;;;;;;22.52;58.06;101109.94;4973071;28;20031;-71
2021/07/27 08:45:43;;;;;;;20.15;15.77;;;;;;;22.54;57.93;101111.66;4972935;28;20110;-72
2021/07/27 08:48:09;;;;;;;17.73;15.63;;;;;;;22.55;57.97;101108.13;4974288;28;20054;-71
2021/07/27 08:50:35;;;;;;;20.30;16.13;;;;;;;22.52;58.01;101108.16;4956974;28;20489;-73
2021/07/27 08:53:00;;;;;;;19.73;15.95;;;;;;;22.57;57.83;101111.59;4956615;28;20081;-72
2021/07/27 08:55:26;;;;;;;18.70;16.77;;;;;;;22.55;57.94;101109.88;4957810;28;20042;-72
2021/07/27 08:57:57;;;;;;;18.45;16.50;;;;;;;22.55;57.99;101113.41;4976599;28;20038;-72
2021/07/27 09:00:23;;;;;;;17.65;15.85;;;;;;;22.55;57.90;101118.66;4976948;28;20022;-72
2021/07/27 09:02:49;;;;;;;20.70;17.08;;;;;;;22.52;57.88;101116.06;4977891;28;20034;-72
2021/07/27 09:05:14;;;;;;;18.50;16.52;;;;;;;22.52;58.26;101116.06;4978691;28;20034;-71
2021/07/27 09:07:40;;;;;;;25.08;18.02;;;;;;;22.51;58.25;101114.34;4976682;28;20031;-72
2021/07/27 09:10:14;;;;;;;17.08;15.35;;;;;;;22.57;58.23;101121.28;4978319;28;20026;-74
2021/07/27 09:13:10;;;;;;;19.70;15.85;;;;;;;22.60;58.04;101122.06;4976294;28;20038;-72
2021/07/27 09:15:38;;;;;;;17.42;15.57;;;;;;;22.60;57.97;101103.63;4979038;28;20034;-74
2021/07/27 09:18:05;;;;;;;17.50;15.63;;;;;;;22.63;57.92;101107.97;4977772;28;20512;-72
2021/07/27 09:20:34;;;;;;;17.45;15.65;;;;;;;22.68;57.76;101120.19;4975851;28;20384;-72
2021/07/27 09:23:01;;;;;;;16.60;14.88;;;;;;;22.64;57.92;101107.94;4977258;28;20161;-72
2021/07/27 09:25:28;;;;;;;18.27;15.65;;;;;;;22.66;57.90;101108.78;4976108;28;20030;-74
2021/07/27 09:28:08;;;;;;;17.85;16.05;;;;;;;22.64;57.94;101105.31;4975905;28;20027;-71
2021/07/27 09:30:35;;;;;;;17.40;15.48;;;;;;;22.69;58.13;101114.03;4960175;28;20046;-71
2021/07/27 09:33:02;;;;;;;16.52;14.85;;;;;;;22.68;58.28;101114.91;4977291;28;20026;-71
2021/07/27 09:35:30;;;;;;;19.77;16.90;;;;;;;22.66;58.17;101106.16;4976986;28;20078;-71
2021/07/27 09:38:16;;;;;;;17.90;15.18;;;;;;;22.67;58.15;101113.19;4976941;28;20033;-71
2021/07/27 09:40:48;;;;;;;15.95;14.35;;;;;;;22.69;58.15;101116.66;4975450;28;20082;-71
2021/07/27 09:43:18;;;;;;;17.20;15.40;;;;;;;22.68;58.11;101114.03;4975624;28;20033;-71
2021/07/27 09:45:49;;;;;;;16.67;14.75;;;;;;;22.68;58.21;101111.41;4976718;28;20029;-72
2021/07/27 09:48:16;;;;;;;15.88;14.25;;;;;;;22.72;58.12;101113.09;4975528;28;20029;-71
2021/07/27 09:50:46;;;;;;;16.88;15.07;;;;;;;22.73;58.30;101114.81;4975651;28;20432;-71
2021/07/27 09:53:12;;;;;;;17.27;15.50;;;;;;;22.72;58.31;101115.75;4976480;28;20489;-72
2021/07/27 09:55:38;;;;;;;15.60;13.88;;;;;;;22.72;58.21;101115.75;4959361;28;20034;-71
2021/07/27 09:58:03;;;;;;;16.20;14.68;;;;;;;22.70;58.12;101110.50;4959587;28;20548;-72
2021/07/27 10:00:29;;;;;;;18.75;15.50;;;;;;;22.71;58.29;101109.59;4959328;28;20035;-72
2021/07/27 10:02:56;;;;;;;16.70;15.07;;;;;;;22.73;58.18;101122.72;4959232;28;20027;-71
2021/07/27 10:05:23;;;;;;;15.65;14.05;;;;;;;22.73;58.48;101126.22;4976285;28;20050;-71
2021/07/27 10:07:59;;;;;;;15.38;13.77;;;;;;;22.73;58.63;101120.97;4975253;28;20054;-71
2021/07/27 10:10:38;;;;;;;15.98;14.13;;;;;;;22.70;58.33;101118.41;4976281;28;20027;-71
2021/07/27 10:13:08;;;;;;;19.42;17.33;;;;;;;22.64;58.81;101120.25;4958875;28;20034;-72
2021/07/27 10:15:52;;;;;;;21.50;17.58;;;;;;;22.56;59.41;101124.81;4959662;28;20117;-72
2021/07/27 10:18:30;;;;;;;24.80;17.73;;;;;;;22.48;59.82;101118.78;4958972;28;20034;-72
2021/07/27 10:21:15;;;;;;;20.63;18.08;;;;;;;22.38;60.64;101128.63;4976077;28;20030;-73
2021/07/27 10:23:40;;;;;;;22.83;20.08;;;;;;;22.44;60.37;101124.13;4976007;28;20057;-72
2021/07/27 10:26:06;;;;;;;23.73;21.13;;;;;;;22.52;60.31;101129.25;4958974;28;20062;-72
2021/07/27 10:28:32;;;;;;;25.00;21.27;;;;;;;22.54;60.51;101127.47;4976264;28;20035;-74
2021/07/27 10:31:02;;;;;;;24.05;21.48;;;;;;;22.61;60.28;101138.75;4942898;28;20030;-73
2021/07/27 10:33:28;;;;;;;25.40;22.63;;;;;;;22.67;60.00;101134.25;4958743;28;20045;-73
2021/07/27 10:35:55;;;;;;;26.17;19.85;;;;;;;22.70;60.09;101122.81;4958472;28;20133;-72
2021/07/27 10:38:21;;;;;;;23.27;19.33;;;;;;;22.72;60.00;101126.28;4958407;28;20381;-72
2021/07/27 10:40:47;;;;;;;26.15;21.50;;;;;;;22.73;60.19;101134.13;4942378;28;20042;-72
2021/07/27 10:43:25;;;;;;;26.85;21.50;;;;;;;22.74;60.24;101145.56;4958490;28;20429;-73
2021/07/27 10:46:01;;;;;;;23.17;20.67;;;;;;;22.68;60.38;101135.13;4975716;28;20023;-72
2021/07/27 10:48:35;;;;;;;24.65;21.52;;;;;;;22.70;59.95;101146.53;4958391;28;20041;-72
2021/07/27 10:51:02;;;;;;;24.25;21.70;;;;;;;22.71;60.44;101141.22;4958153;28;20039;-73
2021/07/27 10:53:31;;;;;;;24.08;21.67;;;;;;;22.70;60.88;101144.75;4956165;28;20101;-79
2021/07/27 10:56:01;;;;;;;21.83;19.55;;;;;;;22.71;60.70;101137.72;4975529;28;20038;-73
2021/07/27 10:58:28;;;;;;;23.05;20.65;;;;;;;22.80;60.36;101148.13;4974127;28;20078;-73
2021/07/27 11:00:54;;;;;;;24.27;19.70;;;;;;;22.80;60.29;101135.81;4975583;28;20050;-73
2021/07/27 11:03:27;;;;;;;25.85;20.70;;;;;;;22.82;60.76;101127.00;4958344;28;20058;-73
2021/07/27 11:06:00;;;;;;;30.92;20.48;;;;;;;22.85;60.34;101122.53;4958265;28;20117;-73
2021/07/27 11:08:25;;;;;;;22.05;19.38;;;;;;;22.83;60.60;101111.16;4975903;28;20027;-76
2021/07/27 11:11:11;;;;;;;25.00;22.17;;;;;;;22.85;60.66;101108.50;4973929;28;20117;-73
2021/07/27 11:13:37;;;;;;;24.15;20.83;;;;;;;22.86;60.63;101102.31;4975527;28;20038;-72
2021/07/27 11:16:04;;;;;;;22.80;19.65;;;;;;;22.85;60.64;101096.16;4975348;28;20033;-72
2021/07/27 11:18:29;;;;;;;23.02;20.55;;;;;;;22.91;60.63;101101.34;4974327;28;20473;-73
2021/07/27 11:20:56;;;;;;;23.27;19.60;;;;;;;22.91;60.70;101108.38;4975653;28;20035;-73
2021/07/27 11:23:23;;;;;;;24.83;19.85;;;;;;;22.93;60.48;101101.31;4975014;28;20110;-73
2021/07/27 11:25:52;;;;;;;20.35;18.35;;;;;;;22.92;60.73;101100.44;4975825;28;20027;-73
2021/07/27 11:28:19;;;;;;;21.33;19.13;;;;;;;22.96;60.71;101107.41;4958847;28;20397;-72
2021/07/27 11:30:45;;;;;;;18.98;17.05;;;;;;;22.96;60.96;101104.75;4975615;28;20085;-72
2021/07/27 11:33:14;;;;;;;20.30;17.67;;;;;;;22.97;60.81;101097.72;4974100;28;20034;-72
2021/07/27 11:35:48;;;;;;;21.23;16.17;;;;;;;22.96;61.18;101101.25;4974292;28;20034;-72
2021/07/27 11:38:25;;;;;;;17.73;15.65;;;;;;;22.92;61.44;101102.19;4975396;28;20564;-72
2021/07/27 11:41:12;;;;;;;18.63;15.18;;;;;;;22.93;61.73;101109.22;4974876;28;20046;-72